Time;durP1;ratioP1;P1;durP2;ratioP2;P2;SDS_P1;SDS_P2;PMS_P1;PMS_P2;Temp;Humidity;BMP_temperature;BMP_pressure;BME280_temperature;BME280_humidity;BME280_pressure;Samples;Min_cycle;Max_cycle;Signal;HPM_P1;HPM_P2
2022/05/13 00:02:44;;;;;;;5.72;1.70;;;23.40;39.50;;;;;;7660330;23;20489;-70
2022/05/13 00:05:45;;;;;;;9.45;2.05;;;23.30;39.50;;;;;;7684965;23;20016;-70
2022/05/13 00:08:46;;;;;;;9.98;1.90;;;23.30;39.60;;;;;;7709989;23;20047;-70
2022/05/13 00:11:48;;;;;;;6.07;2.22;;;23.30;39.50;;;;;;7684213;23;20034;-70
2022/05/13 00:14:49;;;;;;;5.28;2.03;;;23.30;39.50;;;;;;7710270;23;20073;-70
2022/05/13 00:17:51;;;;;;;7.15;1.90;;;23.30;39.50;;;;;;7683382;23;20047;-70
2022/05/13 00:20:52;;;;;;;4.75;2.13;;;23.30;39.40;;;;;;7684474;23;20402;-71
2022/05/13 00:23:53;;;;;;;5.75;2.30;;;23.30;39.30;;;;;;7661467;23;20166;-71
2022/05/13 00:26:54;;;;;;;11.90;1.88;;;23.30;39.30;;;;;;7712082;23;20085;-71
2022/05/13 00:29:55;;;;;;;9.48;1.92;;;23.30;39.40;;;;;;7684939;23;20016;-71
2022/05/13 00:32:56;;;;;;;11.43;2.00;;;23.30;39.50;;;;;;7712409;23;20020;-71
2022/05/13 00:35:57;;;;;;;13.27;2.80;;;23.30;39.50;;;;;;7685484;23;20024;-70
2022/05/13 00:38:58;;;;;;;8.35;2.38;;;23.20;39.50;;;;;;7710380;23;20361;-71
2022/05/13 00:42:07;;;;;;;3.92;1.58;;;23.20;39.60;;;;;;7662075;23;20051;-71
2022/05/13 00:45:10;;;;;;;7.45;1.77;;;23.10;39.70;;;;;;7660951;23;20020;-71
2022/05/13 00:48:11;;;;;;;13.65;2.00;;;23.10;39.60;;;;;;7685059;23;20020;-71
2022/05/13 00:51:18;;;;;;;6.15;1.60;;;23.10;39.60;;;;;;7684754;23;20384;-71
2022/05/13 00:54:19;;;;;;;13.80;2.40;;;23.10;39.70;;;;;;7685180;23;20020;-71
2022/05/13 00:57:22;;;;;;;8.05;2.10;;;23.10;39.60;;;;;;7660689;23;20012;-71
2022/05/13 01:00:23;;;;;;;6.90;2.17;;;23.10;39.60;;;;;;7710875;23;20016;-71
2022/05/13 01:03:24;;;;;;;4.43;2.13;;;23.10;39.50;;;;;;7685596;23;20028;-71
2022/05/13 01:06:25;;;;;;;5.35;1.77;;;23.10;39.50;;;;;;7659405;23;20025;-71
2022/05/13 01:09:29;;;;;;;5.38;1.80;;;23.20;39.60;;;;;;7685096;23;20148;-71
2022/05/13 01:12:36;;;;;;;4.57;2.08;;;23.10;39.60;;;;;;7673496;23;20105;-71
2022/05/13 01:15:40;;;;;;;6.28;1.98;;;23.10;39.90;;;;;;7676284;23;20448;-70
2022/05/13 01:18:43;;;;;;;6.57;1.73;;;23.10;39.70;;;;;;7676440;23;20024;-71
2022/05/13 01:21:47;;;;;;;8.43;2.15;;;23.10;39.70;;;;;;7674678;23;20032;-71
2022/05/13 01:24:48;;;;;;;6.43;2.30;;;23.00;39.60;;;;;;7675804;23;20051;-71
2022/05/13 01:27:48;;;;;;;8.85;1.95;;;23.00;39.70;;;;;;7649707;23;20021;-71
2022/05/13 01:30:53;;;;;;;7.95;2.00;;;23.00;39.80;;;;;;7637937;23;20480;-70
2022/05/13 01:33:54;;;;;;;7.90;1.77;;;23.00;39.80;;;;;;7587968;23;20018;-70
2022/05/13 01:36:55;;;;;;;4.25;1.75;;;23.00;39.90;;;;;;7676733;23;20075;-70
2022/05/13 01:39:56;;;;;;;8.38;2.30;;;22.90;39.90;;;;;;7677472;23;20336;-70
2022/05/13 01:42:57;;;;;;;9.45;2.15;;;22.90;40.00;;;;;;7676213;23;20116;-70
2022/05/13 01:45:58;;;;;;;11.75;2.10;;;22.80;40.10;;;;;;7675668;23;20017;-70
2022/05/13 01:49:00;;;;;;;12.23;2.20;;;22.80;40.30;;;;;;7677271;23;20023;-70
2022/05/13 01:52:00;;;;;;;7.72;1.92;;;22.80;40.50;;;;;;7676675;23;20013;-70
2022/05/13 01:55:01;;;;;;;6.85;1.98;;;22.80;40.60;;;;;;7675970;23;20024;-70
2022/05/13 01:58:04;;;;;;;4.90;1.90;;;22.80;40.70;;;;;;7675935;23;20032;-70
2022/05/13 02:01:07;;;;;;;4.85;1.92;;;22.80;40.80;;;;;;7676844;23;20005;-70
2022/05/13 02:04:08;;;;;;;6.60;2.28;;;22.80;40.80;;;;;;7675491;23;20025;-70
2022/05/13 02:07:08;;;;;;;6.68;1.85;;;22.80;41.00;;;;;;7676098;23;20317;-70
2022/05/13 02:10:09;;;;;;;11.35;2.65;;;22.70;41.00;;;;;;7675262;23;20033;-70
2022/05/13 02:13:11;;;;;;;7.22;1.70;;;22.70;41.20;;;;;;7706029;23;20017;-69
2022/05/13 02:16:13;;;;;;;6.38;2.10;;;22.60;41.40;;;;;;7688169;23;20020;-70
2022/05/13 02:19:15;;;;;;;5.72;2.20;;;22.60;41.50;;;;;;7688281;23;20012;-70
2022/05/13 02:22:16;;;;;;;3.97;1.58;;;22.60;41.70;;;;;;7713714;23;20082;-70
2022/05/13 02:25:17;;;;;;;6.45;2.15;;;22.50;41.80;;;;;;7663357;23;20301;-70
2022/05/13 02:28:18;;;;;;;8.57;2.20;;;22.40;41.90;;;;;;7651142;23;20091;-70
2022/05/13 02:31:19;;;;;;;6.10;2.33;;;22.40;42.00;;;;;;7645247;23;20316;-70
2022/05/13 02:34:20;;;;;;;4.75;2.28;;;22.40;42.40;;;;;;7675407;23;20036;-70
2022/05/13 02:37:21;;;;;;;7.47;3.03;;;22.30;42.70;;;;;;7662452;23;20032;-70
2022/05/13 02:41:11;;;;;;;6.65;2.35;;;22.20;42.80;;;;;;7677054;23;20017;-71
2022/05/13 02:43:53;;;;;;;7.60;2.50;;;22.20;43.10;;;;;;7647731;23;20328;-71
2022/05/13 02:46:54;;;;;;;6.30;2.30;;;22.10;43.40;;;;;;7682545;23;20024;-71
2022/05/13 02:53:14;;;;;;;4.22;2.17;;;22.00;43.70;;;;;;7675643;23;20088;-71
2022/05/13 02:56:16;;;;;;;8.30;2.63;;;22.00;43.90;;;;;;7674236;23;20031;-71
2022/05/13 02:59:16;;;;;;;3.63;1.95;;;21.90;44.00;;;;;;7673509;23;20021;-72
2022/05/13 03:02:17;;;;;;;7.57;2.78;;;21.90;44.20;;;;;;7673536;23;20309;-71
2022/05/13 03:05:19;;;;;;;9.48;2.70;;;21.90;44.40;;;;;;7675321;23;20296;-71
2022/05/13 03:08:20;;;;;;;5.15;2.90;;;21.80;44.70;;;;;;7675063;23;20016;-71
2022/05/13 03:11:21;;;;;;;12.80;3.00;;;21.80;45.10;;;;;;7667536;23;20013;-71
2022/05/13 03:14:22;;;;;;;7.28;2.55;;;21.80;45.30;;;;;;7637573;23;20149;-71
2022/05/13 03:17:23;;;;;;;6.70;3.28;;;21.70;45.70;;;;;;7648636;23;20017;-71
2022/05/13 03:20:25;;;;;;;9.95;2.80;;;21.70;45.90;;;;;;7648961;23;20013;-71
2022/05/13 03:23:26;;;;;;;7.05;3.85;;;21.70;46.20;;;;;;7674410;23;20032;-72
2022/05/13 03:26:27;;;;;;;5.68;3.42;;;21.60;46.40;;;;;;7674450;23;20096;-71
2022/05/13 03:29:28;;;;;;;8.73;2.90;;;21.60;46.70;;;;;;7624149;23;20017;-71
2022/05/13 03:32:29;;;;;;;8.00;3.65;;;21.50;46.70;;;;;;7674595;23;20367;-71
2022/05/13 03:35:30;;;;;;;10.68;3.38;;;21.50;46.90;;;;;;7635392;23;20021;-71
2022/05/13 03:38:31;;;;;;;5.80;2.50;;;21.50;47.20;;;;;;7674280;23;20025;-71
2022/05/13 03:41:32;;;;;;;5.53;2.85;;;21.50;47.50;;;;;;7624099;23;20368;-71
2022/05/13 03:44:34;;;;;;;8.50;3.33;;;21.50;47.70;;;;;;7674720;23;20032;-71
2022/05/13 03:47:35;;;;;;;6.22;2.75;;;21.50;48.00;;;;;;7648796;23;20054;-73
2022/05/13 03:50:39;;;;;;;11.82;3.28;;;21.40;48.10;;;;;;7648381;23;20325;-71
2022/05/13 03:53:40;;;;;;;5.22;3.20;;;21.40;48.00;;;;;;7648258;23;20096;-71
2022/05/13 03:56:41;;;;;;;10.35;3.05;;;21.40;48.10;;;;;;7674789;23;20012;-71
2022/05/13 03:59:42;;;;;;;5.78;2.88;;;21.40;48.30;;;;;;7651310;23;20013;-70
2022/05/13 04:02:43;;;;;;;7.03;2.80;;;21.40;48.50;;;;;;7625818;23;20016;-71
2022/05/13 04:09:06;;;;;;;8.85;2.72;;;21.30;48.80;;;;;;7613753;23;20033;-70
2022/05/13 04:18:49;;;;;;;9.77;3.60;;;21.20;49.20;;;;;;7712432;23;20020;-71
2022/05/13 04:21:51;;;;;;;10.20;3.95;;;21.20;49.90;;;;;;7686309;23;20289;-71
2022/05/13 04:24:52;;;;;;;6.63;3.00;;;21.10;49.40;;;;;;7685875;23;20039;-70
2022/05/13 04:27:53;;;;;;;6.85;3.65;;;21.10;49.50;;;;;;7712100;23;20017;-70
2022/05/13 04:30:54;;;;;;;7.95;3.53;;;21.10;49.50;;;;;;7661341;23;20355;-70
2022/05/13 04:33:56;;;;;;;9.43;3.50;;;21.00;49.50;;;;;;7686142;23;20017;-71
2022/05/13 04:36:57;;;;;;;5.50;2.85;;;21.00;49.60;;;;;;7712227;23;20020;-70
2022/05/13 04:39:58;;;;;;;11.95;3.35;;;21.00;49.70;;;;;;7712428;23;20020;-70
2022/05/13 04:43:00;;;;;;;5.45;2.80;;;21.00;49.70;;;;;;7661066;23;20273;-71
2022/05/13 04:46:01;;;;;;;9.32;2.95;;;20.90;49.70;;;;;;7712282;23;20028;-71
2022/05/13 04:49:03;;;;;;;4.80;2.35;;;20.90;49.70;;;;;;7661004;23;20431;-71
2022/05/13 04:52:04;;;;;;;6.95;2.70;;;20.90;49.80;;;;;;7685922;23;20092;-71
2022/05/13 04:55:06;;;;;;;14.93;3.50;;;20.90;50.10;;;;;;7685690;23;20024;-71
2022/05/13 04:58:07;;;;;;;8.93;3.08;;;20.90;50.20;;;;;;7659505;23;20016;-71
2022/05/13 05:01:10;;;;;;;10.18;2.95;;;20.80;50.20;;;;;;7686449;23;20020;-71
2022/05/13 05:04:11;;;;;;;8.93;3.05;;;20.80;50.30;;;;;;7685150;23;20067;-72
2022/05/13 05:07:12;;;;;;;9.38;2.50;;;20.80;50.30;;;;;;7684848;23;20032;-70
2022/05/13 05:10:13;;;;;;;9.05;2.97;;;20.70;50.20;;;;;;7685798;23;20087;-69
2022/05/13 05:13:20;;;;;;;7.53;3.33;;;20.70;50.30;;;;;;7710551;23;20091;-71
2022/05/13 05:16:22;;;;;;;5.00;2.78;;;20.60;50.30;;;;;;7710273;23;20017;-71
2022/05/13 05:19:23;;;;;;;10.98;3.03;;;20.60;50.20;;;;;;7711560;23;20088;-71
2022/05/13 05:22:24;;;;;;;6.95;2.03;;;20.60;50.10;;;;;;7708958;23;20012;-71
2022/05/13 05:25:28;;;;;;;7.68;2.65;;;20.50;50.00;;;;;;7658734;23;20020;-70
2022/05/13 05:28:29;;;;;;;13.18;2.40;;;20.50;49.90;;;;;;7710143;23;20039;-71
2022/05/13 05:31:30;;;;;;;10.65;2.92;;;20.60;49.90;;;;;;7683164;23;20096;-70
2022/05/13 05:34:32;;;;;;;8.73;2.67;;;20.60;49.90;;;;;;7681685;23;20295;-72
2022/05/13 05:37:33;;;;;;;5.90;2.70;;;20.60;49.90;;;;;;7668949;23;20012;-71
2022/05/13 05:40:36;;;;;;;8.18;2.90;;;20.70;49.80;;;;;;7682282;23;20039;-70
2022/05/13 05:43:37;;;;;;;6.72;2.90;;;20.70;49.70;;;;;;7707809;23;20111;-69
2022/05/13 05:46:38;;;;;;;10.98;3.38;;;20.80;49.60;;;;;;7709725;23;20032;-68
2022/05/13 05:49:39;;;;;;;12.25;2.65;;;20.80;49.60;;;;;;7672426;23;20025;-69
2022/05/13 05:52:40;;;;;;;23.50;3.63;;;20.90;49.50;;;;;;7672582;23;20089;-68
2022/05/13 05:59:01;;;;;;;11.77;2.95;;;20.90;49.50;;;;;;7670732;23;20028;-68
2022/05/13 06:02:02;;;;;;;12.57;3.25;;;21.00;49.60;;;;;;7673020;23;20017;-69
2022/05/13 06:05:03;;;;;;;9.52;2.67;;;21.10;49.60;;;;;;7708638;23;20104;-68
2022/05/13 06:08:05;;;;;;;12.32;3.58;;;21.10;49.40;;;;;;7657762;23;20013;-68
2022/05/13 06:11:06;;;;;;;4.82;2.63;;;21.20;49.20;;;;;;7702680;23;20009;-70
2022/05/13 06:14:09;;;;;;;10.40;3.35;;;21.30;48.90;;;;;;7691075;23;20020;-71
2022/05/13 06:17:10;;;;;;;11.20;3.42;;;21.30;48.80;;;;;;7706190;23;20016;-69
2022/05/13 06:20:13;;;;;;;6.68;3.17;;;21.40;48.80;;;;;;7679780;23;20026;-69
2022/05/13 06:23:14;;;;;;;15.07;2.95;;;21.50;48.80;;;;;;7656135;23;20032;-69
2022/05/13 06:26:15;;;;;;;10.68;4.38;;;21.60;48.80;;;;;;7677423;23;20021;-71
2022/05/13 06:29:20;;;;;;;10.95;3.35;;;21.60;48.70;;;;;;7708135;23;20486;-69
2022/05/13 06:32:21;;;;;;;15.05;3.88;;;21.60;48.80;;;;;;7710136;23;20094;-69
2022/05/13 06:35:23;;;;;;;17.65;3.55;;;21.60;48.70;;;;;;7684403;23;20024;-69
2022/05/13 06:38:25;;;;;;;18.08;3.70;;;21.60;48.60;;;;;;7709384;23;20012;-69
2022/05/13 06:41:26;;;;;;;11.38;3.53;;;21.70;48.50;;;;;;7710217;23;20367;-69
2022/05/13 06:44:27;;;;;;;9.70;2.63;;;21.70;48.40;;;;;;7709837;23;20016;-69
2022/05/13 06:47:28;;;;;;;9.65;3.25;;;21.70;48.30;;;;;;7708650;23;20336;-69
2022/05/13 06:50:28;;;;;;;9.95;2.95;;;21.70;48.20;;;;;;7682201;23;20016;-68
2022/05/13 06:53:30;;;;;;;7.38;3.70;;;21.80;48.00;;;;;;7682570;23;20039;-68
2022/05/13 06:56:36;;;;;;;8.25;2.63;;;21.90;47.80;;;;;;7683533;23;20013;-68
2022/05/13 06:59:38;;;;;;;8.43;3.45;;;22.00;47.60;;;;;;7683151;23;20043;-69
2022/05/13 07:02:39;;;;;;;17.52;3.15;;;22.00;47.40;;;;;;7681659;23;20039;-68
2022/05/13 07:05:40;;;;;;;5.43;2.95;;;22.00;47.20;;;;;;7681003;23;20020;-70
2022/05/13 07:08:41;;;;;;;7.65;3.00;;;22.10;47.10;;;;;;7693454;23;20043;-69
2022/05/13 07:11:44;;;;;;;9.10;3.33;;;22.20;47.00;;;;;;7708396;23;20108;-70
2022/05/13 07:14:45;;;;;;;10.90;3.63;;;22.20;46.90;;;;;;7709018;23;20341;-70
2022/05/13 07:17:46;;;;;;;13.25;3.63;;;22.30;46.90;;;;;;7683268;23;20100;-70
2022/05/13 07:20:48;;;;;;;10.45;2.33;;;22.30;47.00;;;;;;7684310;23;20277;-70
2022/05/13 07:23:49;;;;;;;16.40;2.95;;;22.40;47.00;;;;;;7684086;23;20017;-71
2022/05/13 07:26:50;;;;;;;18.77;3.72;;;22.50;46.50;;;;;;7710485;23;20078;-70
2022/05/13 07:29:50;;;;;;;9.48;3.72;;;22.60;46.00;;;;;;7710072;23;20399;-70
2022/05/13 07:32:52;;;;;;;17.00;3.75;;;22.60;45.70;;;;;;7683084;23;20024;-70
2022/05/13 07:35:53;;;;;;;7.63;3.13;;;22.70;45.70;;;;;;7656488;23;20012;-70
2022/05/13 07:42:14;;;;;;;14.32;2.80;;;22.90;45.00;;;;;;7709267;23;20028;-69
2022/05/13 07:45:15;;;;;;;4.22;2.50;;;23.00;44.60;;;;;;7683036;23;20020;-70
2022/05/13 07:48:16;;;;;;;6.78;2.50;;;23.10;44.40;;;;;;7658780;23;20051;-70
2022/05/13 07:51:18;;;;;;;10.38;2.70;;;23.30;44.10;;;;;;7683334;23;20091;-70
2022/05/13 07:54:18;;;;;;;8.85;2.75;;;23.40;43.70;;;;;;7682832;23;20021;-69
2022/05/13 07:57:19;;;;;;;8.52;2.80;;;23.60;43.40;;;;;;7673077;23;20024;-69
2022/05/13 08:00:25;;;;;;;3.78;2.05;;;23.80;43.10;;;;;;7635047;23;20139;-69
2022/05/13 08:03:27;;;;;;;3.05;2.05;;;23.90;42.70;;;;;;7673048;23;20325;-69
2022/05/13 08:06:28;;;;;;;4.60;2.28;;;24.00;42.30;;;;;;7672098;23;20082;-69
2022/05/13 08:09:29;;;;;;;10.52;2.65;;;24.10;41.90;;;;;;7673506;23;20017;-69
2022/05/13 08:12:29;;;;;;;13.63;2.45;;;24.30;41.70;;;;;;7658616;23;20036;-69
2022/05/13 08:15:30;;;;;;;10.80;2.38;;;24.50;41.60;;;;;;7636887;23;20033;-69
2022/05/13 08:18:32;;;;;;;11.50;2.45;;;24.60;41.30;;;;;;7648371;23;20021;-69
2022/05/13 08:21:33;;;;;;;5.07;2.08;;;24.70;40.90;;;;;;7648021;23;20027;-70
2022/05/13 08:24:33;;;;;;;9.70;2.10;;;24.80;40.60;;;;;;7647419;23;20328;-69
2022/05/13 08:27:35;;;;;;;8.00;2.40;;;24.90;40.30;;;;;;7674324;23;20024;-69
2022/05/13 08:30:37;;;;;;;7.25;2.30;;;25.00;40.00;;;;;;7648544;23;20024;-68
2022/05/13 08:33:38;;;;;;;10.43;2.58;;;25.10;39.90;;;;;;7648032;23;20025;-69
2022/05/13 08:36:40;;;;;;;25.33;3.22;;;25.20;39.80;;;;;;7609555;23;20032;-69
2022/05/13 08:39:41;;;;;;;9.00;2.67;;;25.30;39.70;;;;;;7614179;23;20088;-69
2022/05/13 08:42:45;;;;;;;7.90;2.53;;;25.40;39.50;;;;;;7635715;23;20435;-70
2022/05/13 08:46:13;;;;;;;8.95;2.10;;;25.50;39.30;;;;;;7648171;23;20286;-70
2022/05/13 08:49:19;;;;;;;10.52;2.17;;;25.60;39.30;;;;;;7605694;23;20036;-69
2022/05/13 08:56:00;;;;;;;5.65;2.45;;;25.80;38.60;;;;;;7644284;23;20009;-70
2022/05/13 08:59:13;;;;;;;7.47;2.15;;;25.90;38.20;;;;;;7648349;23;20024;-71
2022/05/13 09:02:22;;;;;;;8.88;2.03;;;26.00;37.90;;;;;;7647054;23;20017;-71
2022/05/13 09:05:34;;;;;;;5.82;1.75;;;26.10;37.40;;;;;;7646239;23;20323;-71
2022/05/13 09:08:35;;;;;;;6.65;1.80;;;26.20;37.00;;;;;;7647020;23;20416;-71
2022/05/13 09:12:02;;;;;;;5.93;2.10;;;26.40;36.80;;;;;;7646622;23;20021;-70
2022/05/13 09:15:32;;;;;;;4.50;2.08;;;26.60;36.50;;;;;;7664104;23;20023;-71
2022/05/13 09:18:36;;;;;;;5.05;1.77;;;26.70;36.10;;;;;;7619362;23;20016;-72
2022/05/13 09:21:43;;;;;;;5.20;1.60;;;26.90;35.70;;;;;;7672428;23;20021;-70
2022/05/13 09:24:45;;;;;;;5.85;1.88;;;27.10;35.20;;;;;;7673878;23;20017;-69
2022/05/13 09:27:55;;;;;;;7.30;1.92;;;27.30;34.80;;;;;;7670127;23;20075;-70
2022/05/13 09:31:24;;;;;;;6.60;1.58;;;27.40;34.70;;;;;;7671813;23;20017;-71
2022/05/13 09:34:36;;;;;;;;;;;27.50;34.10;;;;;;7671684;23;20021;-70
2022/05/13 09:37:45;;;;;;;11.55;2.10;;;27.60;33.80;;;;;;7671800;23;19908;-70
2022/05/13 09:41:08;;;;;;;3.00;1.65;;;27.60;33.50;;;;;;7669778;23;20013;-70
2022/05/13 09:44:21;;;;;;;11.27;2.30;;;27.60;33.40;;;;;;7671721;23;20021;-70
2022/05/13 09:47:30;;;;;;;10.85;1.60;;;27.80;33.30;;;;;;7671851;23;20462;-70
2022/05/13 09:50:35;;;;;;;8.07;2.03;;;27.90;33.10;;;;;;7672014;23;20017;-70
2022/05/13 09:53:36;;;;;;;6.18;2.10;;;28.00;33.00;;;;;;7671589;23;20363;-70
2022/05/13 09:56:41;;;;;;;7.38;1.75;;;28.10;32.80;;;;;;7671269;23;20084;-70
2022/05/13 09:59:52;;;;;;;7.65;2.17;;;28.20;32.40;;;;;;7645816;23;20036;-70
2022/05/13 10:03:16;;;;;;;12.07;2.13;;;28.30;32.40;;;;;;7648056;23;20312;-69
2022/05/13 10:06:20;;;;;;;8.20;2.53;;;28.20;32.30;;;;;;7670359;23;20029;-74
2022/05/13 10:16:18;;;;;;;8.50;1.83;;;28.60;30.00;;;;;;7668358;23;20151;-70
2022/05/13 10:19:31;;;;;;;4.95;1.40;;;28.60;29.30;;;;;;7670384;23;20075;-71
2022/05/13 10:22:47;;;;;;;4.55;1.63;;;28.60;29.20;;;;;;7708096;23;20332;-72
2022/05/13 10:25:57;;;;;;;7.63;1.60;;;28.70;28.50;;;;;;7680497;23;20096;-70
2022/05/13 10:29:10;;;;;;;3.72;1.70;;;28.80;28.60;;;;;;7657227;23;20013;-70
2022/05/13 10:32:33;;;;;;;7.93;1.45;;;28.90;28.40;;;;;;7707562;23;20012;-73
2022/05/13 10:35:52;;;;;;;2.95;1.40;;;29.00;28.10;;;;;;7680269;23;20012;-71
2022/05/13 10:39:01;;;;;;;4.63;1.60;;;29.10;27.80;;;;;;7707182;23;20017;-70
2022/05/13 10:42:19;;;;;;;5.90;1.55;;;29.20;27.50;;;;;;7682501;23;20016;-70
2022/05/13 10:45:25;;;;;;;7.43;1.63;;;29.30;27.40;;;;;;7708509;23;20031;-70
2022/05/13 10:48:27;;;;;;;7.85;2.00;;;29.40;27.80;;;;;;7709612;23;20013;-71
2022/05/13 10:51:56;;;;;;;6.50;1.90;;;29.50;28.20;;;;;;7709157;23;20019;-70
2022/05/13 10:55:09;;;;;;;6.43;2.22;;;29.60;28.40;;;;;;7681792;23;20016;-71
2022/05/13 10:58:16;;;;;;;12.35;2.72;;;29.90;28.50;;;;;;7681903;23;20071;-70
2022/05/13 11:01:41;;;;;;;6.97;2.05;;;30.00;28.60;;;;;;7709256;23;20292;-70
2022/05/13 11:05:05;;;;;;;5.88;1.90;;;30.20;28.50;;;;;;7706023;23;20017;-70
2022/05/13 11:08:21;;;;;;;10.18;1.88;;;30.50;28.40;;;;;;7667836;23;20008;-69
2022/05/13 11:15:56;;;;;;;12.68;1.90;;;30.90;28.20;;;;;;7665255;23;20029;-73
2022/05/13 11:19:21;;;;;;;6.45;1.70;;;31.20;28.10;;;;;;7649934;23;20109;-70
2022/05/13 11:22:34;;;;;;;10.13;2.22;;;31.30;28.10;;;;;;7651099;23;20051;-70
2022/05/13 11:26:16;;;;;;;10.05;2.00;;;31.40;28.20;;;;;;7673771;23;20021;-71
2022/05/13 11:29:55;;;;;;;6.00;1.77;;;31.40;28.20;;;;;;7574895;23;20133;-70
2022/05/13 11:32:59;;;;;;;;;;;31.40;28.20;;;;;;7462657;23;20023;-69
2022/05/13 11:36:12;;;;;;;5.50;2.00;;;31.40;28.20;;;;;;7484441;23;19914;-70
2022/05/13 11:39:31;;;;;;;4.75;2.03;;;31.40;28.20;;;;;;7485075;23;20121;-70
2022/05/13 11:43:47;;;;;;;8.18;1.98;;;31.20;28.20;;;;;;7461060;23;20082;-70
2022/05/13 11:46:41;;;;;;;14.65;2.38;;;31.30;28.30;;;;;;7466200;23;20078;-70
2022/05/13 11:49:44;;;;;;;6.30;1.70;;;31.20;28.40;;;;;;7485280;23;20032;-70
2022/05/13 11:52:48;;;;;;;5.30;1.95;;;31.10;28.50;;;;;;7487023;23;20475;-71
2022/05/13 11:55:49;;;;;;;2.70;1.42;;;31.00;28.50;;;;;;7486279;23;20026;-71
2022/05/13 11:58:52;;;;;;;12.18;1.63;;;30.90;28.60;;;;;;7486318;23;20360;-71
2022/05/13 12:02:26;;;;;;;6.05;1.75;;;30.90;28.60;;;;;;7486175;23;20027;-70
2022/05/13 12:05:31;;;;;;;8.38;1.95;;;30.90;28.50;;;;;;7513168;23;20494;-70
2022/05/13 12:08:45;;;;;;;14.15;3.10;;;31.10;28.80;;;;;;7570098;23;20051;-71
2022/05/13 12:12:03;;;;;;;6.82;1.70;;;31.20;28.10;;;;;;7643640;23;20013;-71
2022/05/13 12:15:13;;;;;;;7.22;1.60;;;31.30;27.80;;;;;;7629165;23;20035;-71
2022/05/13 12:18:30;;;;;;;13.70;1.65;;;31.40;27.60;;;;;;7672791;23;20017;-70
2022/05/13 12:25:59;;;;;;;2.67;1.38;;;31.50;27.40;;;;;;7714162;23;20388;-71
2022/05/13 12:29:11;;;;;;;12.50;2.03;;;31.70;27.00;;;;;;7715644;23;20673;-72
2022/05/13 12:32:37;;;;;;;3.42;1.40;;;31.80;26.60;;;;;;7691859;23;20012;-71
2022/05/13 12:39:23;;;;;;;7.90;1.45;;;32.30;25.70;;;;;;7686780;23;20024;-71
2022/05/13 12:42:47;;;;;;;4.60;1.27;;;32.40;25.40;;;;;;7687767;23;20044;-71
2022/05/13 12:46:13;;;;;;;5.55;1.52;;;32.80;25.20;;;;;;7672392;23;20031;-71
2022/05/13 12:49:19;;;;;;;3.80;1.48;;;33.10;24.80;;;;;;7680641;23;20088;-71
2022/05/13 12:52:35;;;;;;;7.07;1.45;;;33.50;24.30;;;;;;7707258;23;20039;-70
2022/05/13 12:55:39;;;;;;;11.05;1.98;;;34.00;23.90;;;;;;7707636;23;20095;-74
2022/05/13 12:58:43;;;;;;;5.18;1.55;;;34.30;23.30;;;;;;7708012;23;20017;-70
2022/05/13 13:01:49;;;;;;;4.97;1.25;;;34.50;22.80;;;;;;7708261;23;20078;-70
2022/05/13 13:05:18;;;;;;;4.05;1.17;;;34.70;22.40;;;;;;7681013;23;20092;-71
2022/05/13 13:08:26;;;;;;;5.00;1.35;;;34.70;22.30;;;;;;7439054;23;20301;-71
2022/05/13 13:11:57;;;;;;;11.50;1.33;;;35.30;22.00;;;;;;7488452;23;20023;-73
2022/05/13 13:15:16;;;;;;;6.47;1.30;;;36.30;21.60;;;;;;7488863;23;20032;-72
2022/05/13 13:18:16;;;;;;;;;;;37.20;20.50;;;;;;7486236;23;20039;-70
2022/05/13 13:21:18;;;;;;;11.25;1.60;;;37.70;19.90;;;;;;7488271;23;19993;-71
2022/05/13 13:24:24;;;;;;;10.00;1.83;;;38.10;19.50;;;;;;7488705;23;20031;-72
2022/05/13 13:27:30;;;;;;;5.53;1.83;;;38.50;19.00;;;;;;7489184;23;20090;-71
2022/05/13 13:30:33;;;;;;;8.47;1.50;;;38.80;18.90;;;;;;7488671;23;20038;-71
2022/05/13 13:33:36;;;;;;;4.93;1.40;;;39.10;18.70;;;;;;7474624;23;20423;-71
2022/05/13 13:36:37;;;;;;;11.82;1.67;;;39.10;18.70;;;;;;7487332;23;20373;-72
2022/05/13 13:39:38;;;;;;;12.32;1.90;;;38.90;18.60;;;;;;7487482;23;20020;-70
2022/05/13 13:42:39;;;;;;;16.88;1.52;;;38.60;18.90;;;;;;7487842;23;20016;-72
2022/05/13 13:45:45;;;;;;;8.13;1.30;;;38.20;19.30;;;;;;7615823;23;20479;-72
2022/05/13 13:48:50;;;;;;;6.30;1.40;;;38.00;19.50;;;;;;7669798;23;20087;-71
2022/05/13 13:51:55;;;;;;;8.13;1.33;;;38.10;19.40;;;;;;7646079;23;20072;-72
2022/05/13 13:55:04;;;;;;;8.18;1.67;;;38.50;19.40;;;;;;7674109;23;20017;-73
2022/05/13 13:58:33;;;;;;;4.28;1.52;;;39.20;18.90;;;;;;7671882;23;20017;-71
2022/05/13 14:01:35;;;;;;;;;;;39.80;18.50;;;;;;7673957;23;20044;-72
2022/05/13 14:04:40;;;;;;;7.68;1.45;;;40.30;18.20;;;;;;7675591;23;20204;-71
2022/05/13 14:07:45;;;;;;;5.85;1.60;;;40.80;18.00;;;;;;7674755;23;20071;-72
2022/05/13 14:10:48;;;;;;;6.40;1.77;;;41.20;17.80;;;;;;7673907;23;20019;-71
2022/05/13 14:13:52;;;;;;;14.15;1.80;;;41.70;17.70;;;;;;7674028;23;20023;-70
2022/05/13 14:17:01;;;;;;;4.60;1.40;;;42.10;17.30;;;;;;7639832;23;20374;-70
2022/05/13 14:20:22;;;;;;;4.57;1.67;;;42.10;17.20;;;;;;7647274;23;20009;-70
2022/05/13 14:23:31;;;;;;;5.88;1.75;;;42.10;17.00;;;;;;7646289;23;20267;-70
2022/05/13 14:26:55;;;;;;;4.10;1.60;;;41.90;17.10;;;;;;7645753;23;20031;-70
2022/05/13 14:30:06;;;;;;;6.82;1.70;;;41.60;17.50;;;;;;7670062;23;20151;-70
2022/05/13 14:33:07;;;;;;;7.85;1.77;;;41.20;17.50;;;;;;7645438;23;20013;-70
2022/05/13 14:36:12;;;;;;;5.68;1.90;;;40.10;18.20;;;;;;7671675;23;20017;-70
2022/05/13 14:42:44;;;;;;;5.45;1.40;;;37.60;19.90;;;;;;7628457;23;20021;-71
2022/05/13 14:45:47;;;;;;;7.45;1.67;;;36.90;20.30;;;;;;7647228;23;20013;-70
2022/05/13 14:48:48;;;;;;;7.13;1.75;;;36.30;20.70;;;;;;7673464;23;20096;-70
2022/05/13 14:51:49;;;;;;;7.82;1.88;;;35.80;21.20;;;;;;7647917;23;20328;-69
2022/05/13 14:54:51;;;;;;;6.40;1.90;;;35.70;21.40;;;;;;7647374;23;20017;-70
2022/05/13 14:57:53;;;;;;;3.75;1.55;;;35.30;21.60;;;;;;7673589;23;20316;-70
2022/05/13 15:01:06;;;;;;;4.18;1.35;;;35.10;21.90;;;;;;7647067;23;20087;-70
2022/05/13 15:04:25;;;;;;;3.50;1.60;;;34.90;22.10;;;;;;7644249;23;20009;-70
2022/05/13 15:07:40;;;;;;;4.93;1.88;;;34.60;22.40;;;;;;7644648;23;20144;-70
2022/05/13 15:10:41;;;;;;;6.85;1.75;;;34.30;22.80;;;;;;7644665;23;20016;-70
2022/05/13 15:13:43;;;;;;;4.40;1.95;;;33.90;23.10;;;;;;7673751;23;20009;-69
2022/05/13 15:16:45;;;;;;;8.55;2.30;;;33.70;23.50;;;;;;7707650;23;20032;-70
2022/05/13 15:19:46;;;;;;;12.57;2.25;;;33.80;23.80;;;;;;7658034;23;20440;-70
2022/05/13 15:22:47;;;;;;;13.80;2.47;;;33.60;23.90;;;;;;7682916;23;20435;-70
2022/05/13 15:25:49;;;;;;;5.65;1.80;;;33.60;24.20;;;;;;7680434;23;20423;-71
2022/05/13 15:28:50;;;;;;;4.47;1.83;;;34.10;24.10;;;;;;7708832;23;20024;-70
2022/05/13 15:31:51;;;;;;;8.38;2.47;;;35.00;23.50;;;;;;7682065;23;20016;-70
2022/05/13 15:34:52;;;;;;;5.60;2.25;;;35.50;23.10;;;;;;7658338;23;20091;-70
2022/05/13 15:37:55;;;;;;;7.38;1.95;;;35.70;23.10;;;;;;7656882;23;20017;-70
2022/05/13 15:40:56;;;;;;;9.32;2.00;;;36.00;23.00;;;;;;7682494;23;20031;-70
2022/05/13 15:43:57;;;;;;;6.25;1.90;;;36.40;22.80;;;;;;7682586;23;20024;-70
2022/05/13 15:47:04;;;;;;;8.52;2.13;;;36.80;22.40;;;;;;7667352;23;20024;-69
2022/05/13 15:53:29;;;;;;;4.32;2.10;;;36.80;22.50;;;;;;7709892;23;20078;-70
2022/05/13 15:56:36;;;;;;;7.00;2.67;;;36.50;23.30;;;;;;7662286;23;20035;-70
2022/05/13 15:59:37;;;;;;;7.47;2.13;;;35.80;23.30;;;;;;7687479;23;20090;-70
2022/05/13 16:02:38;;;;;;;7.80;2.28;;;35.10;24.10;;;;;;7712914;23;20012;-69
2022/05/13 16:05:41;;;;;;;5.97;2.40;;;34.30;25.20;;;;;;7713146;23;20116;-70
2022/05/13 16:08:42;;;;;;;4.63;2.38;;;34.10;25.30;;;;;;7685223;23;20020;-70
2022/05/13 16:11:47;;;;;;;6.63;2.45;;;34.60;25.10;;;;;;7712110;23;20367;-69
2022/05/13 16:14:50;;;;;;;9.77;2.63;;;35.10;24.70;;;;;;7711900;23;20021;-70
2022/05/13 16:17:53;;;;;;;5.00;2.30;;;35.40;24.50;;;;;;7686050;23;20099;-69
2022/05/13 16:20:57;;;;;;;7.97;2.70;;;35.10;24.60;;;;;;7685906;23;20055;-70
2022/05/13 16:23:59;;;;;;;3.65;2.33;;;34.50;25.20;;;;;;7685834;23;20087;-70
2022/05/13 16:27:00;;;;;;;5.82;2.50;;;34.40;25.40;;;;;;7684516;23;20016;-71
2022/05/13 16:30:01;;;;;;;10.82;2.40;;;34.50;25.40;;;;;;7686016;23;20316;-71
2022/05/13 16:33:02;;;;;;;7.85;2.30;;;34.20;25.70;;;;;;7712527;23;20044;-71
2022/05/13 16:36:05;;;;;;;8.38;2.70;;;33.60;26.40;;;;;;7712344;23;20012;-71
2022/05/13 16:39:06;;;;;;;9.18;2.70;;;33.00;27.00;;;;;;7712669;23;20498;-71
2022/05/13 16:42:07;;;;;;;6.43;2.80;;;32.50;27.90;;;;;;7712496;23;20083;-71
2022/05/13 16:45:09;;;;;;;11.85;2.83;;;32.00;28.60;;;;;;7686026;23;20041;-70
2022/05/13 16:48:11;;;;;;;5.32;2.67;;;31.60;29.20;;;;;;7686020;23;20040;-70
2022/05/13 16:51:13;;;;;;;12.25;2.60;;;31.20;29.60;;;;;;7712959;23;20412;-70
2022/05/13 16:54:14;;;;;;;6.72;2.83;;;30.90;30.00;;;;;;7685896;23;20307;-71